sensor_id;sensor_type;location;lat;lon;timestamp;P1;durP1;ratioP1;P2;durP2;ratioP2
19495;SDS011;9888;48.606;9.630;2023-11-19T00:01:02;7.03;;;3.23;;
19495;SDS011;9888;48.606;9.630;2023-11-19T00:03:32;7.30;;;3.40;;
19495;SDS011;9888;48.606;9.630;2023-11-19T00:06:17;7.40;;;3.27;;
19495;SDS011;9888;48.606;9.630;2023-11-19T00:08:56;7.13;;;3.03;;
19495;SDS011;9888;48.606;9.630;2023-11-19T00:11:23;7.00;;;2.80;;
19495;SDS011;9888;48.606;9.630;2023-11-19T00:13:51;8.13;;;3.00;;
19495;SDS011;9888;48.606;9.630;2023-11-19T00:16:18;7.10;;;2.70;;
19495;SDS011;9888;48.606;9.630;2023-11-19T00:18:46;8.70;;;3.20;;
19495;SDS011;9888;48.606;9.630;2023-11-19T00:21:17;6.27;;;2.50;;
19495;SDS011;9888;48.606;9.630;2023-11-19T00:23:44;6.30;;;2.50;;
19495;SDS011;9888;48.606;9.630;2023-11-19T00:26:11;6.70;;;2.87;;
19495;SDS011;9888;48.606;9.630;2023-11-19T00:28:40;7.13;;;3.07;;
19495;SDS011;9888;48.606;9.630;2023-11-19T00:31:08;9.07;;;2.67;;
19495;SDS011;9888;48.606;9.630;2023-11-19T00:33:37;7.10;;;2.57;;
19495;SDS011;9888;48.606;9.630;2023-11-19T00:36:06;6.83;;;2.73;;
19495;SDS011;9888;48.606;9.630;2023-11-19T00:38:33;7.40;;;3.20;;
19495;SDS011;9888;48.606;9.630;2023-11-19T00:41:00;7.13;;;3.30;;
19495;SDS011;9888;48.606;9.630;2023-11-19T00:43:32;6.60;;;2.70;;
19495;SDS011;9888;48.606;9.630;2023-11-19T00:46:02;8.50;;;2.80;;
19495;SDS011;9888;48.606;9.630;2023-11-19T00:48:33;6.60;;;2.80;;
19495;SDS011;9888;48.606;9.630;2023-11-19T00:51:01;6.63;;;2.77;;
19495;SDS011;9888;48.606;9.630;2023-11-19T00:53:31;6.87;;;2.53;;
19495;SDS011;9888;48.606;9.630;2023-11-19T00:55:59;6.40;;;2.73;;
19495;SDS011;9888;48.606;9.630;2023-11-19T00:58:27;6.93;;;3.00;;
19495;SDS011;9888;48.606;9.630;2023-11-19T01:00:57;6.20;;;2.63;;
19495;SDS011;9888;48.606;9.630;2023-11-19T01:03:26;6.90;;;2.90;;
19495;SDS011;9888;48.606;9.630;2023-11-19T01:05:53;6.47;;;2.93;;
19495;SDS011;9888;48.606;9.630;2023-11-19T01:08:22;6.80;;;3.00;;
19495;SDS011;9888;48.606;9.630;2023-11-19T01:10:52;6.10;;;2.43;;
19495;SDS011;9888;48.606;9.630;2023-11-19T01:13:22;7.83;;;2.80;;
19495;SDS011;9888;48.606;9.630;2023-11-19T01:15:53;5.50;;;2.17;;
19495;SDS011;9888;48.606;9.630;2023-11-19T01:18:22;6.00;;;2.33;;
19495;SDS011;9888;48.606;9.630;2023-11-19T01:21:04;6.60;;;2.30;;
19495;SDS011;9888;48.606;9.630;2023-11-19T01:23:42;6.47;;;2.80;;
19495;SDS011;9888;48.606;9.630;2023-11-19T01:26:12;6.10;;;2.27;;
19495;SDS011;9888;48.606;9.630;2023-11-19T01:28:39;5.87;;;2.20;;
19495;SDS011;9888;48.606;9.630;2023-11-19T01:31:14;6.10;;;2.20;;
19495;SDS011;9888;48.606;9.630;2023-11-19T01:34:00;5.97;;;2.13;;
19495;SDS011;9888;48.606;9.630;2023-11-19T01:36:27;5.13;;;1.80;;
19495;SDS011;9888;48.606;9.630;2023-11-19T01:38:55;5.33;;;1.77;;
19495;SDS011;9888;48.606;9.630;2023-11-19T01:41:24;6.00;;;2.17;;
19495;SDS011;9888;48.606;9.630;2023-11-19T01:43:52;5.50;;;1.80;;
19495;SDS011;9888;48.606;9.630;2023-11-19T01:46:20;6.30;;;1.73;;
19495;SDS011;9888;48.606;9.630;2023-11-19T01:48:48;5.00;;;1.40;;
19495;SDS011;9888;48.606;9.630;2023-11-19T01:51:16;5.20;;;1.37;;
19495;SDS011;9888;48.606;9.630;2023-11-19T01:53:46;5.47;;;1.73;;
19495;SDS011;9888;48.606;9.630;2023-11-19T01:56:15;6.40;;;1.57;;
19495;SDS011;9888;48.606;9.630;2023-11-19T01:58:44;4.67;;;1.20;;
19495;SDS011;9888;48.606;9.630;2023-11-19T02:01:12;8.20;;;1.60;;
19495;SDS011;9888;48.606;9.630;2023-11-19T02:03:40;8.23;;;1.43;;
19495;SDS011;9888;48.606;9.630;2023-11-19T02:06:10;4.90;;;1.47;;
19495;SDS011;9888;48.606;9.630;2023-11-19T02:08:37;4.90;;;1.20;;
19495;SDS011;9888;48.606;9.630;2023-11-19T02:11:24;5.53;;;1.50;;
19495;SDS011;9888;48.606;9.630;2023-11-19T02:13:55;4.60;;;1.00;;
19495;SDS011;9888;48.606;9.630;2023-11-19T02:16:23;4.90;;;1.20;;
19495;SDS011;9888;48.606;9.630;2023-11-19T02:18:59;4.70;;;1.07;;
19495;SDS011;9888;48.606;9.630;2023-11-19T02:21:26;4.33;;;0.80;;
19495;SDS011;9888;48.606;9.630;2023-11-19T02:23:54;5.57;;;0.80;;
19495;SDS011;9888;48.606;9.630;2023-11-19T02:26:35;4.87;;;1.00;;
19495;SDS011;9888;48.606;9.630;2023-11-19T02:29:12;4.00;;;0.60;;
19495;SDS011;9888;48.606;9.630;2023-11-19T02:31:41;4.13;;;0.70;;
19495;SDS011;9888;48.606;9.630;2023-11-19T02:34:10;4.10;;;0.70;;
19495;SDS011;9888;48.606;9.630;2023-11-19T02:36:38;4.20;;;0.70;;
19495;SDS011;9888;48.606;9.630;2023-11-19T02:39:07;4.20;;;0.77;;
19495;SDS011;9888;48.606;9.630;2023-11-19T02:41:37;4.30;;;0.70;;
19495;SDS011;9888;48.606;9.630;2023-11-19T02:44:05;6.53;;;0.80;;
19495;SDS011;9888;48.606;9.630;2023-11-19T02:46:34;4.03;;;0.60;;
19495;SDS011;9888;48.606;9.630;2023-11-19T02:49:19;3.93;;;0.70;;
19495;SDS011;9888;48.606;9.630;2023-11-19T02:51:48;4.17;;;0.73;;
19495;SDS011;9888;48.606;9.630;2023-11-19T02:54:15;4.00;;;0.60;;
19495;SDS011;9888;48.606;9.630;2023-11-19T02:56:45;4.00;;;0.70;;
19495;SDS011;9888;48.606;9.630;2023-11-19T02:59:21;6.63;;;0.70;;
19495;SDS011;9888;48.606;9.630;2023-11-19T03:01:53;5.13;;;0.70;;
19495;SDS011;9888;48.606;9.630;2023-11-19T03:04:22;4.40;;;0.70;;
19495;SDS011;9888;48.606;9.630;2023-11-19T03:06:57;4.20;;;0.70;;
19495;SDS011;9888;48.606;9.630;2023-11-19T03:09:24;4.20;;;0.70;;
19495;SDS011;9888;48.606;9.630;2023-11-19T03:11:52;4.10;;;0.70;;
19495;SDS011;9888;48.606;9.630;2023-11-19T03:14:19;4.10;;;0.60;;
19495;SDS011;9888;48.606;9.630;2023-11-19T03:16:48;4.20;;;0.73;;
19495;SDS011;9888;48.606;9.630;2023-11-19T03:19:17;4.10;;;0.60;;
19495;SDS011;9888;48.606;9.630;2023-11-19T03:21:44;4.80;;;0.73;;
19495;SDS011;9888;48.606;9.630;2023-11-19T03:24:14;4.17;;;0.80;;
19495;SDS011;9888;48.606;9.630;2023-11-19T03:26:47;4.07;;;0.70;;
19495;SDS011;9888;48.606;9.630;2023-11-19T03:29:17;4.03;;;0.70;;
19495;SDS011;9888;48.606;9.630;2023-11-19T03:31:45;4.87;;;1.17;;
19495;SDS011;9888;48.606;9.630;2023-11-19T03:34:13;4.80;;;0.90;;
19495;SDS011;9888;48.606;9.630;2023-11-19T03:36:41;4.00;;;0.70;;
19495;SDS011;9888;48.606;9.630;2023-11-19T03:39:13;3.93;;;0.70;;
19495;SDS011;9888;48.606;9.630;2023-11-19T03:44:34;4.10;;;0.70;;
19495;SDS011;9888;48.606;9.630;2023-11-19T03:47:01;4.00;;;0.70;;
19495;SDS011;9888;48.606;9.630;2023-11-19T03:49:30;3.90;;;0.80;;
19495;SDS011;9888;48.606;9.630;2023-11-19T03:51:58;3.90;;;0.77;;
19495;SDS011;9888;48.606;9.630;2023-11-19T03:54:25;4.30;;;0.70;;
19495;SDS011;9888;48.606;9.630;2023-11-19T04:00:18;3.90;;;0.70;;
19495;SDS011;9888;48.606;9.630;2023-11-19T04:02:46;5.87;;;0.80;;
19495;SDS011;9888;48.606;9.630;2023-11-19T04:05:15;4.50;;;0.70;;
19495;SDS011;9888;48.606;9.630;2023-11-19T04:07:48;4.00;;;0.70;;
19495;SDS011;9888;48.606;9.630;2023-11-19T04:10:17;4.00;;;0.70;;
19495;SDS011;9888;48.606;9.630;2023-11-19T04:12:44;4.70;;;0.70;;
19495;SDS011;9888;48.606;9.630;2023-11-19T04:15:13;4.07;;;0.80;;
19495;SDS011;9888;48.606;9.630;2023-11-19T04:17:48;4.00;;;0.70;;
19495;SDS011;9888;48.606;9.630;2023-11-19T04:23:37;4.10;;;0.70;;
19495;SDS011;9888;48.606;9.630;2023-11-19T04:26:06;4.00;;;0.67;;
19495;SDS011;9888;48.606;9.630;2023-11-19T04:28:34;4.30;;;0.60;;
19495;SDS011;9888;48.606;9.630;2023-11-19T04:31:02;3.97;;;0.60;;
19495;SDS011;9888;48.606;9.630;2023-11-19T04:33:30;4.30;;;0.70;;
19495;SDS011;9888;48.606;9.630;2023-11-19T04:35:58;4.17;;;0.70;;
19495;SDS011;9888;48.606;9.630;2023-11-19T04:38:37;4.00;;;0.70;;
19495;SDS011;9888;48.606;9.630;2023-11-19T04:41:13;4.00;;;0.67;;
19495;SDS011;9888;48.606;9.630;2023-11-19T04:43:40;4.00;;;0.70;;
19495;SDS011;9888;48.606;9.630;2023-11-19T04:46:09;4.80;;;0.63;;
19495;SDS011;9888;48.606;9.630;2023-11-19T04:48:37;4.30;;;0.70;;
19495;SDS011;9888;48.606;9.630;2023-11-19T04:51:04;4.10;;;0.70;;
19495;SDS011;9888;48.606;9.630;2023-11-19T04:53:32;5.17;;;0.60;;
19495;SDS011;9888;48.606;9.630;2023-11-19T04:55:59;4.80;;;0.70;;
19495;SDS011;9888;48.606;9.630;2023-11-19T04:58:28;4.20;;;0.70;;
19495;SDS011;9888;48.606;9.630;2023-11-19T05:00:57;4.10;;;0.70;;
19495;SDS011;9888;48.606;9.630;2023-11-19T05:03:24;3.93;;;0.60;;
19495;SDS011;9888;48.606;9.630;2023-11-19T05:05:52;4.50;;;0.70;;
19495;SDS011;9888;48.606;9.630;2023-11-19T05:08:20;6.83;;;0.77;;
19495;SDS011;9888;48.606;9.630;2023-11-19T05:10:48;4.00;;;0.60;;
19495;SDS011;9888;48.606;9.630;2023-11-19T05:13:16;4.70;;;0.70;;
19495;SDS011;9888;48.606;9.630;2023-11-19T05:15:43;4.00;;;0.70;;
19495;SDS011;9888;48.606;9.630;2023-11-19T05:18:11;5.17;;;0.70;;
19495;SDS011;9888;48.606;9.630;2023-11-19T05:20:39;4.00;;;0.70;;
19495;SDS011;9888;48.606;9.630;2023-11-19T05:23:07;3.97;;;0.60;;
19495;SDS011;9888;48.606;9.630;2023-11-19T05:25:34;4.07;;;0.60;;
19495;SDS011;9888;48.606;9.630;2023-11-19T05:28:03;4.97;;;0.67;;
19495;SDS011;9888;48.606;9.630;2023-11-19T05:30:31;3.97;;;0.70;;
19495;SDS011;9888;48.606;9.630;2023-11-19T05:32:58;3.97;;;0.60;;
19495;SDS011;9888;48.606;9.630;2023-11-19T05:35:26;4.00;;;0.63;;
19495;SDS011;9888;48.606;9.630;2023-11-19T05:37:53;4.10;;;0.70;;
19495;SDS011;9888;48.606;9.630;2023-11-19T05:40:21;3.93;;;0.60;;
19495;SDS011;9888;48.606;9.630;2023-11-19T05:42:49;4.07;;;0.73;;
19495;SDS011;9888;48.606;9.630;2023-11-19T05:45:17;5.47;;;0.60;;
19495;SDS011;9888;48.606;9.630;2023-11-19T05:47:44;4.70;;;0.70;;
19495;SDS011;9888;48.606;9.630;2023-11-19T05:50:12;3.97;;;0.60;;
19495;SDS011;9888;48.606;9.630;2023-11-19T05:52:40;4.00;;;0.60;;
19495;SDS011;9888;48.606;9.630;2023-11-19T05:55:07;3.97;;;0.60;;
19495;SDS011;9888;48.606;9.630;2023-11-19T05:57:36;4.10;;;0.70;;
19495;SDS011;9888;48.606;9.630;2023-11-19T06:00:05;4.07;;;0.70;;
19495;SDS011;9888;48.606;9.630;2023-11-19T06:02:34;4.20;;;0.60;;
19495;SDS011;9888;48.606;9.630;2023-11-19T06:05:03;4.07;;;0.70;;
19495;SDS011;9888;48.606;9.630;2023-11-19T06:07:32;4.40;;;0.60;;
19495;SDS011;9888;48.606;9.630;2023-11-19T06:10:03;3.90;;;0.60;;
19495;SDS011;9888;48.606;9.630;2023-11-19T06:12:33;4.07;;;0.70;;
19495;SDS011;9888;48.606;9.630;2023-11-19T06:15:04;4.70;;;0.70;;
19495;SDS011;9888;48.606;9.630;2023-11-19T06:17:33;4.20;;;0.80;;
19495;SDS011;9888;48.606;9.630;2023-11-19T06:20:02;4.07;;;0.70;;
19495;SDS011;9888;48.606;9.630;2023-11-19T06:22:31;4.20;;;0.70;;
19495;SDS011;9888;48.606;9.630;2023-11-19T06:24:59;4.00;;;0.70;;
19495;SDS011;9888;48.606;9.630;2023-11-19T06:27:34;4.10;;;0.60;;
19495;SDS011;9888;48.606;9.630;2023-11-19T06:30:01;4.33;;;0.70;;
19495;SDS011;9888;48.606;9.630;2023-11-19T06:32:30;4.13;;;0.70;;
19495;SDS011;9888;48.606;9.630;2023-11-19T06:34:58;3.97;;;0.70;;
19495;SDS011;9888;48.606;9.630;2023-11-19T06:37:26;4.50;;;0.70;;
19495;SDS011;9888;48.606;9.630;2023-11-19T06:39:54;4.00;;;0.70;;
19495;SDS011;9888;48.606;9.630;2023-11-19T06:42:21;4.00;;;0.70;;
19495;SDS011;9888;48.606;9.630;2023-11-19T06:44:51;3.90;;;0.60;;
19495;SDS011;9888;48.606;9.630;2023-11-19T06:50:40;4.00;;;0.60;;
19495;SDS011;9888;48.606;9.630;2023-11-19T06:53:08;4.00;;;0.70;;
19495;SDS011;9888;48.606;9.630;2023-11-19T06:55:36;10.00;;;0.83;;
19495;SDS011;9888;48.606;9.630;2023-11-19T07:01:36;7.43;;;0.80;;
19495;SDS011;9888;48.606;9.630;2023-11-19T07:04:04;9.73;;;1.00;;
19495;SDS011;9888;48.606;9.630;2023-11-19T07:06:35;4.10;;;0.60;;
19495;SDS011;9888;48.606;9.630;2023-11-19T07:09:02;4.53;;;1.03;;
19495;SDS011;9888;48.606;9.630;2023-11-19T07:11:36;4.07;;;0.70;;
19495;SDS011;9888;48.606;9.630;2023-11-19T07:14:09;4.10;;;0.67;;
19495;SDS011;9888;48.606;9.630;2023-11-19T07:16:38;4.03;;;0.70;;
19495;SDS011;9888;48.606;9.630;2023-11-19T07:19:06;4.23;;;0.70;;
19495;SDS011;9888;48.606;9.630;2023-11-19T07:21:35;6.60;;;1.20;;
19495;SDS011;9888;48.606;9.630;2023-11-19T07:24:10;5.30;;;0.90;;
19495;SDS011;9888;48.606;9.630;2023-11-19T07:26:45;4.40;;;0.80;;
19495;SDS011;9888;48.606;9.630;2023-11-19T07:29:16;4.00;;;0.70;;
19495;SDS011;9888;48.606;9.630;2023-11-19T07:31:45;5.57;;;0.83;;
19495;SDS011;9888;48.606;9.630;2023-11-19T07:34:17;4.80;;;0.70;;
19495;SDS011;9888;48.606;9.630;2023-11-19T07:36:46;3.97;;;0.67;;
19495;SDS011;9888;48.606;9.630;2023-11-19T07:42:35;4.03;;;0.80;;
19495;SDS011;9888;48.606;9.630;2023-11-19T07:45:03;4.00;;;0.60;;
19495;SDS011;9888;48.606;9.630;2023-11-19T07:47:34;4.90;;;0.70;;
19495;SDS011;9888;48.606;9.630;2023-11-19T07:50:01;4.07;;;0.70;;
19495;SDS011;9888;48.606;9.630;2023-11-19T07:52:29;4.30;;;0.77;;
19495;SDS011;9888;48.606;9.630;2023-11-19T07:54:58;4.60;;;0.80;;
19495;SDS011;9888;48.606;9.630;2023-11-19T07:57:26;4.00;;;0.70;;
19495;SDS011;9888;48.606;9.630;2023-11-19T07:59:56;4.07;;;0.70;;
19495;SDS011;9888;48.606;9.630;2023-11-19T08:02:24;3.97;;;0.70;;
19495;SDS011;9888;48.606;9.630;2023-11-19T08:04:52;4.60;;;0.70;;
19495;SDS011;9888;48.606;9.630;2023-11-19T08:07:20;4.10;;;0.70;;
19495;SDS011;9888;48.606;9.630;2023-11-19T08:09:47;4.10;;;0.70;;
19495;SDS011;9888;48.606;9.630;2023-11-19T08:12:14;4.30;;;0.80;;
19495;SDS011;9888;48.606;9.630;2023-11-19T08:14:43;4.10;;;0.70;;
19495;SDS011;9888;48.606;9.630;2023-11-19T08:17:25;4.10;;;0.70;;
19495;SDS011;9888;48.606;9.630;2023-11-19T08:19:54;4.00;;;0.70;;
19495;SDS011;9888;48.606;9.630;2023-11-19T08:22:31;4.70;;;0.80;;
19495;SDS011;9888;48.606;9.630;2023-11-19T08:24:59;4.83;;;0.80;;
19495;SDS011;9888;48.606;9.630;2023-11-19T08:27:27;4.70;;;0.80;;
19495;SDS011;9888;48.606;9.630;2023-11-19T08:29:55;3.97;;;0.70;;
19495;SDS011;9888;48.606;9.630;2023-11-19T08:32:22;4.27;;;0.70;;
19495;SDS011;9888;48.606;9.630;2023-11-19T08:34:55;4.03;;;0.80;;
19495;SDS011;9888;48.606;9.630;2023-11-19T08:37:23;4.23;;;0.73;;
19495;SDS011;9888;48.606;9.630;2023-11-19T08:39:51;4.30;;;0.70;;
19495;SDS011;9888;48.606;9.630;2023-11-19T08:42:20;4.23;;;0.73;;
19495;SDS011;9888;48.606;9.630;2023-11-19T08:44:51;4.80;;;0.80;;
19495;SDS011;9888;48.606;9.630;2023-11-19T08:47:20;5.33;;;0.90;;
19495;SDS011;9888;48.606;9.630;2023-11-19T08:49:50;5.57;;;0.87;;
19495;SDS011;9888;48.606;9.630;2023-11-19T08:52:18;4.10;;;0.80;;
19495;SDS011;9888;48.606;9.630;2023-11-19T08:54:53;6.93;;;0.90;;
19495;SDS011;9888;48.606;9.630;2023-11-19T08:57:20;4.40;;;0.80;;
19495;SDS011;9888;48.606;9.630;2023-11-19T08:59:48;4.50;;;0.80;;
19495;SDS011;9888;48.606;9.630;2023-11-19T09:02:15;4.20;;;0.80;;
19495;SDS011;9888;48.606;9.630;2023-11-19T09:04:45;7.97;;;1.23;;
19495;SDS011;9888;48.606;9.630;2023-11-19T09:07:12;4.10;;;0.80;;
19495;SDS011;9888;48.606;9.630;2023-11-19T09:09:41;4.50;;;0.90;;
19495;SDS011;9888;48.606;9.630;2023-11-19T09:12:09;4.40;;;0.80;;
19495;SDS011;9888;48.606;9.630;2023-11-19T09:14:36;4.20;;;0.90;;
19495;SDS011;9888;48.606;9.630;2023-11-19T09:17:04;4.40;;;0.87;;
19495;SDS011;9888;48.606;9.630;2023-11-19T09:19:32;4.20;;;0.87;;
19495;SDS011;9888;48.606;9.630;2023-11-19T09:22:01;4.37;;;0.90;;
19495;SDS011;9888;48.606;9.630;2023-11-19T09:24:29;4.60;;;0.80;;
19495;SDS011;9888;48.606;9.630;2023-11-19T09:26:56;4.20;;;0.70;;
19495;SDS011;9888;48.606;9.630;2023-11-19T09:29:23;4.47;;;0.90;;
19495;SDS011;9888;48.606;9.630;2023-11-19T09:31:50;4.60;;;0.80;;
19495;SDS011;9888;48.606;9.630;2023-11-19T09:34:17;4.10;;;0.80;;
19495;SDS011;9888;48.606;9.630;2023-11-19T09:36:44;5.37;;;0.80;;
19495;SDS011;9888;48.606;9.630;2023-11-19T09:39:16;4.90;;;0.70;;
19495;SDS011;9888;48.606;9.630;2023-11-19T09:41:44;4.27;;;0.80;;
19495;SDS011;9888;48.606;9.630;2023-11-19T09:44:15;4.30;;;0.83;;
19495;SDS011;9888;48.606;9.630;2023-11-19T09:46:44;4.93;;;0.90;;
19495;SDS011;9888;48.606;9.630;2023-11-19T09:49:15;4.47;;;1.00;;
19495;SDS011;9888;48.606;9.630;2023-11-19T09:51:49;6.30;;;1.10;;
19495;SDS011;9888;48.606;9.630;2023-11-19T09:54:18;5.10;;;0.83;;
19495;SDS011;9888;48.606;9.630;2023-11-19T09:56:47;4.10;;;0.83;;
19495;SDS011;9888;48.606;9.630;2023-11-19T09:59:14;4.60;;;0.80;;
19495;SDS011;9888;48.606;9.630;2023-11-19T10:01:43;4.10;;;0.80;;
19495;SDS011;9888;48.606;9.630;2023-11-19T10:04:13;5.13;;;0.80;;
19495;SDS011;9888;48.606;9.630;2023-11-19T10:06:43;4.97;;;0.70;;
19495;SDS011;9888;48.606;9.630;2023-11-19T10:09:11;4.00;;;0.67;;
19495;SDS011;9888;48.606;9.630;2023-11-19T10:11:41;4.50;;;0.70;;
19495;SDS011;9888;48.606;9.630;2023-11-19T10:17:06;4.40;;;0.70;;
19495;SDS011;9888;48.606;9.630;2023-11-19T10:19:35;4.40;;;1.77;;
19495;SDS011;9888;48.606;9.630;2023-11-19T10:22:06;4.20;;;0.80;;
19495;SDS011;9888;48.606;9.630;2023-11-19T10:28:22;4.07;;;0.70;;
19495;SDS011;9888;48.606;9.630;2023-11-19T10:30:52;4.30;;;0.70;;
19495;SDS011;9888;48.606;9.630;2023-11-19T10:33:24;4.07;;;0.70;;
19495;SDS011;9888;48.606;9.630;2023-11-19T10:35:58;4.30;;;0.97;;
19495;SDS011;9888;48.606;9.630;2023-11-19T10:38:27;4.20;;;0.80;;
19495;SDS011;9888;48.606;9.630;2023-11-19T10:40:56;4.00;;;0.70;;
19495;SDS011;9888;48.606;9.630;2023-11-19T10:43:24;5.90;;;0.90;;
19495;SDS011;9888;48.606;9.630;2023-11-19T10:45:55;4.27;;;0.83;;
19495;SDS011;9888;48.606;9.630;2023-11-19T10:48:39;4.20;;;0.80;;
19495;SDS011;9888;48.606;9.630;2023-11-19T10:51:07;4.60;;;1.00;;
19495;SDS011;9888;48.606;9.630;2023-11-19T10:53:37;5.43;;;0.80;;
19495;SDS011;9888;48.606;9.630;2023-11-19T10:56:05;6.67;;;0.90;;
19495;SDS011;9888;48.606;9.630;2023-11-19T10:58:49;4.20;;;0.80;;
19495;SDS011;9888;48.606;9.630;2023-11-19T11:01:21;4.10;;;0.70;;
19495;SDS011;9888;48.606;9.630;2023-11-19T11:03:52;4.03;;;0.70;;
19495;SDS011;9888;48.606;9.630;2023-11-19T11:06:22;4.07;;;0.80;;
19495;SDS011;9888;48.606;9.630;2023-11-19T11:08:50;4.10;;;0.70;;
19495;SDS011;9888;48.606;9.630;2023-11-19T11:11:21;4.30;;;0.80;;
19495;SDS011;9888;48.606;9.630;2023-11-19T11:13:50;4.37;;;0.70;;
19495;SDS011;9888;48.606;9.630;2023-11-19T11:16:20;4.10;;;0.80;;
19495;SDS011;9888;48.606;9.630;2023-11-19T11:18:50;4.53;;;0.83;;
19495;SDS011;9888;48.606;9.630;2023-11-19T11:21:20;4.30;;;0.90;;
19495;SDS011;9888;48.606;9.630;2023-11-19T11:32:31;4.30;;;0.80;;
19495;SDS011;9888;48.606;9.630;2023-11-19T11:38:00;4.50;;;0.80;;
19495;SDS011;9888;48.606;9.630;2023-11-19T11:40:44;4.40;;;0.87;;
19495;SDS011;9888;48.606;9.630;2023-11-19T11:43:51;4.70;;;0.87;;
19495;SDS011;9888;48.606;9.630;2023-11-19T11:49:04;4.30;;;0.80;;
19495;SDS011;9888;48.606;9.630;2023-11-19T11:57:12;4.37;;;0.70;;
19495;SDS011;9888;48.606;9.630;2023-11-19T11:59:45;4.87;;;0.80;;
19495;SDS011;9888;48.606;9.630;2023-11-19T12:02:17;5.00;;;1.00;;
19495;SDS011;9888;48.606;9.630;2023-11-19T12:04:48;5.73;;;1.03;;
19495;SDS011;9888;48.606;9.630;2023-11-19T12:07:23;5.63;;;0.90;;
19495;SDS011;9888;48.606;9.630;2023-11-19T12:10:08;4.27;;;0.90;;
19495;SDS011;9888;48.606;9.630;2023-11-19T12:12:43;5.10;;;0.90;;
19495;SDS011;9888;48.606;9.630;2023-11-19T12:15:12;5.57;;;0.90;;
19495;SDS011;9888;48.606;9.630;2023-11-19T12:17:46;4.13;;;0.80;;
19495;SDS011;9888;48.606;9.630;2023-11-19T12:20:21;4.63;;;0.80;;
19495;SDS011;9888;48.606;9.630;2023-11-19T12:22:49;4.30;;;0.90;;
19495;SDS011;9888;48.606;9.630;2023-11-19T12:25:17;4.60;;;0.80;;
19495;SDS011;9888;48.606;9.630;2023-11-19T12:27:48;5.30;;;0.90;;
19495;SDS011;9888;48.606;9.630;2023-11-19T12:30:17;6.23;;;0.80;;
19495;SDS011;9888;48.606;9.630;2023-11-19T12:32:55;4.50;;;0.97;;
19495;SDS011;9888;48.606;9.630;2023-11-19T12:35:25;5.63;;;1.00;;
19495;SDS011;9888;48.606;9.630;2023-11-19T12:37:54;5.33;;;0.70;;
19495;SDS011;9888;48.606;9.630;2023-11-19T12:40:21;5.13;;;0.83;;
19495;SDS011;9888;48.606;9.630;2023-11-19T12:42:50;4.40;;;0.90;;
19495;SDS011;9888;48.606;9.630;2023-11-19T12:45:19;4.43;;;0.77;;
19495;SDS011;9888;48.606;9.630;2023-11-19T12:47:49;4.23;;;0.80;;
19495;SDS011;9888;48.606;9.630;2023-11-19T12:50:49;4.23;;;0.80;;
19495;SDS011;9888;48.606;9.630;2023-11-19T12:53:20;4.20;;;0.80;;
19495;SDS011;9888;48.606;9.630;2023-11-19T12:55:54;4.63;;;0.87;;
19495;SDS011;9888;48.606;9.630;2023-11-19T12:58:37;4.70;;;0.90;;
19495;SDS011;9888;48.606;9.630;2023-11-19T13:01:09;5.93;;;0.90;;
19495;SDS011;9888;48.606;9.630;2023-11-19T13:03:42;4.17;;;0.70;;
19495;SDS011;9888;48.606;9.630;2023-11-19T13:06:10;4.67;;;0.93;;
19495;SDS011;9888;48.606;9.630;2023-11-19T13:08:42;4.97;;;0.90;;
19495;SDS011;9888;48.606;9.630;2023-11-19T13:11:33;4.30;;;0.80;;
19495;SDS011;9888;48.606;9.630;2023-11-19T13:14:05;4.50;;;0.90;;
19495;SDS011;9888;48.606;9.630;2023-11-19T13:16:37;4.53;;;0.90;;
19495;SDS011;9888;48.606;9.630;2023-11-19T13:19:04;4.30;;;0.80;;
19495;SDS011;9888;48.606;9.630;2023-11-19T13:21:33;4.13;;;0.80;;
19495;SDS011;9888;48.606;9.630;2023-11-19T13:24:00;4.60;;;0.87;;
19495;SDS011;9888;48.606;9.630;2023-11-19T13:26:28;4.10;;;0.80;;
19495;SDS011;9888;48.606;9.630;2023-11-19T13:29:33;5.30;;;0.80;;
19495;SDS011;9888;48.606;9.630;2023-11-19T13:32:01;4.33;;;0.90;;
19495;SDS011;9888;48.606;9.630;2023-11-19T13:34:43;4.30;;;0.80;;
19495;SDS011;9888;48.606;9.630;2023-11-19T13:37:15;5.37;;;0.87;;
19495;SDS011;9888;48.606;9.630;2023-11-19T13:39:43;4.83;;;0.80;;
19495;SDS011;9888;48.606;9.630;2023-11-19T13:42:10;4.70;;;0.90;;
19495;SDS011;9888;48.606;9.630;2023-11-19T13:44:38;4.30;;;0.90;;
19495;SDS011;9888;48.606;9.630;2023-11-19T13:47:05;4.73;;;1.00;;
19495;SDS011;9888;48.606;9.630;2023-11-19T13:49:33;4.40;;;0.90;;
19495;SDS011;9888;48.606;9.630;2023-11-19T13:52:00;4.50;;;0.93;;
19495;SDS011;9888;48.606;9.630;2023-11-19T13:54:27;5.60;;;0.90;;
19495;SDS011;9888;48.606;9.630;2023-11-19T13:56:55;4.30;;;0.87;;
19495;SDS011;9888;48.606;9.630;2023-11-19T13:59:26;4.80;;;1.00;;
19495;SDS011;9888;48.606;9.630;2023-11-19T14:01:56;5.30;;;1.00;;
19495;SDS011;9888;48.606;9.630;2023-11-19T14:04:23;5.33;;;0.90;;
19495;SDS011;9888;48.606;9.630;2023-11-19T14:06:50;4.53;;;0.87;;
19495;SDS011;9888;48.606;9.630;2023-11-19T14:09:18;4.80;;;1.00;;
19495;SDS011;9888;48.606;9.630;2023-11-19T14:11:44;5.30;;;0.90;;
19495;SDS011;9888;48.606;9.630;2023-11-19T14:14:14;4.70;;;1.10;;
19495;SDS011;9888;48.606;9.630;2023-11-19T14:16:42;4.30;;;0.80;;
19495;SDS011;9888;48.606;9.630;2023-11-19T14:19:10;4.47;;;1.00;;
19495;SDS011;9888;48.606;9.630;2023-11-19T14:21:37;4.97;;;1.00;;
19495;SDS011;9888;48.606;9.630;2023-11-19T14:24:08;4.23;;;0.80;;
19495;SDS011;9888;48.606;9.630;2023-11-19T14:26:35;4.30;;;0.83;;
19495;SDS011;9888;48.606;9.630;2023-11-19T14:29:02;5.27;;;0.90;;
19495;SDS011;9888;48.606;9.630;2023-11-19T14:31:31;5.80;;;1.00;;
19495;SDS011;9888;48.606;9.630;2023-11-19T14:33:59;5.20;;;1.10;;
19495;SDS011;9888;48.606;9.630;2023-11-19T14:36:27;4.30;;;0.83;;
19495;SDS011;9888;48.606;9.630;2023-11-19T14:38:56;5.43;;;1.30;;
19495;SDS011;9888;48.606;9.630;2023-11-19T14:41:24;4.53;;;1.00;;
19495;SDS011;9888;48.606;9.630;2023-11-19T14:43:51;5.33;;;1.10;;
19495;SDS011;9888;48.606;9.630;2023-11-19T14:46:19;4.63;;;1.00;;
19495;SDS011;9888;48.606;9.630;2023-11-19T14:48:46;4.20;;;0.90;;
19495;SDS011;9888;48.606;9.630;2023-11-19T14:51:13;4.40;;;1.00;;
19495;SDS011;9888;48.606;9.630;2023-11-19T14:53:41;4.33;;;0.83;;
19495;SDS011;9888;48.606;9.630;2023-11-19T14:56:11;5.30;;;0.80;;
19495;SDS011;9888;48.606;9.630;2023-11-19T14:58:45;4.60;;;1.00;;
19495;SDS011;9888;48.606;9.630;2023-11-19T15:01:13;4.73;;;0.93;;
19495;SDS011;9888;48.606;9.630;2023-11-19T15:03:40;5.10;;;1.10;;
19495;SDS011;9888;48.606;9.630;2023-11-19T15:06:09;4.43;;;0.90;;
19495;SDS011;9888;48.606;9.630;2023-11-19T15:08:37;5.17;;;1.10;;
19495;SDS011;9888;48.606;9.630;2023-11-19T15:11:07;6.83;;;1.00;;
19495;SDS011;9888;48.606;9.630;2023-11-19T15:13:35;5.03;;;0.93;;
19495;SDS011;9888;48.606;9.630;2023-11-19T15:16:03;4.53;;;1.00;;
19495;SDS011;9888;48.606;9.630;2023-11-19T15:18:36;4.70;;;0.90;;
19495;SDS011;9888;48.606;9.630;2023-11-19T15:21:05;5.03;;;1.07;;
19495;SDS011;9888;48.606;9.630;2023-11-19T15:23:34;4.20;;;0.80;;
19495;SDS011;9888;48.606;9.630;2023-11-19T15:26:02;4.63;;;0.90;;
19495;SDS011;9888;48.606;9.630;2023-11-19T15:28:30;5.80;;;0.97;;
19495;SDS011;9888;48.606;9.630;2023-11-19T15:30:57;4.30;;;0.90;;
19495;SDS011;9888;48.606;9.630;2023-11-19T15:33:25;4.43;;;0.90;;
19495;SDS011;9888;48.606;9.630;2023-11-19T15:35:53;4.30;;;0.90;;
19495;SDS011;9888;48.606;9.630;2023-11-19T15:38:21;5.03;;;0.90;;
19495;SDS011;9888;48.606;9.630;2023-11-19T15:40:48;4.30;;;1.03;;
19495;SDS011;9888;48.606;9.630;2023-11-19T15:43:17;4.33;;;0.80;;
19495;SDS011;9888;48.606;9.630;2023-11-19T15:45:46;5.00;;;1.00;;
19495;SDS011;9888;48.606;9.630;2023-11-19T15:48:17;4.80;;;1.10;;
19495;SDS011;9888;48.606;9.630;2023-11-19T15:50:44;5.23;;;1.10;;
19495;SDS011;9888;48.606;9.630;2023-11-19T15:53:11;6.83;;;1.00;;
19495;SDS011;9888;48.606;9.630;2023-11-19T15:55:39;4.20;;;0.80;;
19495;SDS011;9888;48.606;9.630;2023-11-19T15:58:07;4.73;;;1.07;;
19495;SDS011;9888;48.606;9.630;2023-11-19T16:00:35;4.33;;;1.00;;
19495;SDS011;9888;48.606;9.630;2023-11-19T16:03:02;4.83;;;1.00;;